MST,Max TemperatureF,Mean TemperatureF,Min TemperatureF,Max Dew PointF,MeanDew PointF,Min DewpointF,Max Humidity, Mean Humidity, Min Humidity, Max Sea Level PressureIn, Mean Sea Level PressureIn, Min Sea Level PressureIn, Max VisibilityMiles, Mean VisibilityMiles, Min VisibilityMiles, Max Wind SpeedMPH, Mean Wind SpeedMPH, Max Gust SpeedMPH,PrecipitationIn, CloudCover, Events, WindDirDegrees
2013-2-1,70,48,27,17,14,10,61,31,10,30.21,30.11,30.00,10,10,10,15,6,,0.00,0,,278
2013-2-2,64,50,37,20,14,9,37,26,14,30.31,30.23,30.10,10,10,10,15,9,,0.00,0,,292
2013-2-3,57,44,32,34,26,19,59,40,30,30.23,30.05,29.81,10,10,10,16,9,20,0.00,2,Rain,160
2013-2-4,64,54,39,33,21,11,60,32,12,29.92,29.88,29.82,10,10,10,18,9,24,0.00,1,,320
2013-2-5,70,51,32,24,19,16,54,33,14,30.02,29.91,29.84,10,10,10,10,4,,0.00,0,,328
2013-2-6,73,52,32,27,22,18,56,31,16,29.92,29.82,29.73,10,10,10,23,6,30,0.00,0,,265
2013-2-7,64,53,42,26,23,20,45,30,18,30.13,29.98,29.78,10,10,10,16,9,16,0.00,1,,346
2013-2-8,60,47,34,29,25,20,59,42,28,30.18,30.02,29.81,10,10,9,22,8,28,0.00,0,,161
2013-2-9,75,56,36,36,14,-9,73,29,4,29.80,29.66,29.48,10,7,2,43,16,59,0.00,3,,221
2013-2-10,62,50,37,13,6,-4,33,20,7,29.93,29.84,29.75,10,10,10,29,18,38,0.00,0,,268
2013-2-11,64,45,26,30,12,6,52,28,13,29.99,29.88,29.78,10,10,10,13,6,18,0.00,0,,275
2013-2-12,54,43,32,32,23,16,70,46,24,30.10,29.96,29.81,10,10,10,24,12,33,0.00,1,,306
2013-2-13,61,41,21,19,9,2,68,31,10,30.11,30.01,29.90,10,10,10,21,7,26,0.00,0,,231
2013-2-14,66,47,28,28,10,6,56,25,10,30.12,29.97,29.86,10,10,10,13,5,17,0.00,0,,342
2013-2-15,50,42,30,30,24,18,65,51,31,30.40,30.30,30.20,10,10,9,16,8,,0.00,4,,95
2013-2-16,69,46,24,21,12,1,71,33,7,30.40,30.21,29.99,10,10,10,14,6,21,0.00,0,,219
2013-2-17,73,48,24,10,5,-6,46,20,4,29.99,29.83,29.62,10,10,9,20,5,26,0.00,0,,196
2013-2-18,69,56,44,13,4,-3,26,12,6,30.03,29.84,29.62,10,10,10,29,17,36,0.00,0,,286
2013-2-19,55,42,30,46,27,14,90,51,28,30.09,29.98,29.85,10,10,5,25,11,34,0.24,3,Rain,158
2013-2-20,66,52,37,43,33,19,89,56,22,29.83,29.63,29.41,10,9,5,38,12,48,0.00,3,,176
2013-2-21,57,47,37,21,18,13,47,30,21,29.82,29.71,29.59,10,10,9,32,23,44,0.00,0,,257
2013-2-22,59,44,30,28,19,12,75,37,16,29.95,29.88,29.81,10,10,10,22,11,31,0.00,0,,228
2013-2-23,66,48,30,21,14,3,59,31,8,30.00,29.83,29.65,10,10,10,15,9,22,0.00,0,,231
2013-2-24,70,52,34,24,15,7,56,26,9,29.67,29.59,29.41,10,10,4,28,11,39,0.00,1,,249
2013-2-25,55,44,33,30,19,5,87,49,15,29.95,29.86,29.66,10,8,2,40,26,48,0.00,3,Snow,311
2013-2-26,69,47,25,17,7,-6,58,26,5,29.96,29.79,29.63,10,10,10,22,7,33,0.00,0,,37
2013-2-27,54,42,28,16,11,-1,59,30,18,30.28,30.18,29.97,10,10,10,17,10,24,0.00,0,,358
2013-2-28,59,42,24,20,13,5,69,37,12,30.30,30.23,30.16,10,10,10,10,5,,0.00,0,,242